createdAt,value
2022-11-24T00:01:16.590Z,7.10
2022-11-24T00:03:45.854Z,7.10
2022-11-24T00:06:15.831Z,7.10
2022-11-24T00:08:45.106Z,7.10
2022-11-24T00:11:15.684Z,7.10
2022-11-24T00:13:43.863Z,7.10
2022-11-24T00:16:15.084Z,7.00
2022-11-24T00:18:44.898Z,7.00
2022-11-24T00:21:13.721Z,6.90
2022-11-24T00:23:42.042Z,6.80
2022-11-24T00:26:11.715Z,6.80
2022-11-24T00:28:40.828Z,6.80
2022-11-24T00:31:18.744Z,6.70
2022-11-24T00:33:47.848Z,6.70
2022-11-24T00:36:16.817Z,6.70
2022-11-24T00:38:45.141Z,6.60
2022-11-24T00:41:13.573Z,6.60
2022-11-24T00:43:41.840Z,6.60
2022-11-24T00:46:09.854Z,6.70
2022-11-24T00:48:39.228Z,6.70
2022-11-24T00:51:09.464Z,6.80
2022-11-24T00:53:37.659Z,6.80
2022-11-24T00:56:06.387Z,6.90
2022-11-24T00:58:34.835Z,6.90
2022-11-24T01:01:04.807Z,7.00
2022-11-24T01:03:34.023Z,7.00
2022-11-24T01:06:07.854Z,7.00
2022-11-24T01:08:37.500Z,7.00
2022-11-24T01:11:13.638Z,7.10
2022-11-24T01:13:42.678Z,7.10
2022-11-24T01:16:16.329Z,7.10
2022-11-24T01:18:44.484Z,7.10
2022-11-24T01:21:14.471Z,7.20
2022-11-24T01:23:42.390Z,7.20
2022-11-24T01:26:12.326Z,7.20
2022-11-24T01:28:46.291Z,7.20
2022-11-24T01:31:16.056Z,7.20
2022-11-24T01:33:44.218Z,7.20
2022-11-24T01:36:14.075Z,7.10
2022-11-24T01:38:42.116Z,7.20
2022-11-24T01:41:13.231Z,7.20
2022-11-24T01:43:41.873Z,7.20
2022-11-24T01:46:17.689Z,7.20
2022-11-24T01:48:50.805Z,7.20
2022-11-24T01:51:23.668Z,7.20
2022-11-24T01:53:56.683Z,7.20
2022-11-24T01:56:25.448Z,7.20
2022-11-24T01:58:56.860Z,7.20
2022-11-24T02:01:25.882Z,7.30
2022-11-24T02:03:54.387Z,7.30
2022-11-24T02:06:27.972Z,7.30
2022-11-24T02:08:59.528Z,7.30
2022-11-24T02:11:30.282Z,7.30
2022-11-24T02:13:58.751Z,7.30
2022-11-24T02:16:27.479Z,7.30
2022-11-24T02:18:55.698Z,7.30
2022-11-24T02:21:25.239Z,7.20
2022-11-24T02:24:01.066Z,7.20
2022-11-24T02:26:42.422Z,7.20
2022-11-24T02:29:11.432Z,7.20
2022-11-24T02:31:40.354Z,7.20
2022-11-24T02:34:08.348Z,7.20
2022-11-24T02:36:36.268Z,7.20
2022-11-24T02:39:04.513Z,7.20
2022-11-24T02:41:33.870Z,7.20
2022-11-24T02:44:03.187Z,7.10
2022-11-24T02:46:31.221Z,7.10
2022-11-24T02:48:59.347Z,7.20
2022-11-24T02:51:27.949Z,7.20
2022-11-24T02:53:56.208Z,7.20
2022-11-24T02:56:24.139Z,7.20
2022-11-24T02:58:53.733Z,7.20
2022-11-24T03:01:21.963Z,7.20
2022-11-24T03:03:49.909Z,7.20
2022-11-24T03:06:17.838Z,7.20
2022-11-24T03:08:45.774Z,7.20
2022-11-24T03:11:13.692Z,7.20
2022-11-24T03:13:41.601Z,7.20
2022-11-24T03:16:11.544Z,7.20
2022-11-24T03:18:39.642Z,7.10
2022-11-24T03:21:07.848Z,7.20
2022-11-24T03:23:35.859Z,7.20
2022-11-24T03:26:10.799Z,7.20
2022-11-24T03:28:39.020Z,7.20
2022-11-24T03:31:07.895Z,7.20
2022-11-24T03:33:37.559Z,7.10
2022-11-24T03:36:08.605Z,7.20
2022-11-24T03:38:36.520Z,7.10
2022-11-24T03:41:05.154Z,7.10
2022-11-24T03:43:33.190Z,7.10
2022-11-24T03:46:01.188Z,7.10
2022-11-24T03:48:29.213Z,7.10
2022-11-24T03:51:00.428Z,7.10
2022-11-24T03:53:30.181Z,7.10
2022-11-24T03:55:58.931Z,7.10
2022-11-24T03:58:26.848Z,7.10
2022-11-24T04:00:55.928Z,7.10
2022-11-24T04:03:24.335Z,7.10
2022-11-24T04:05:52.590Z,7.10
2022-11-24T04:08:22.206Z,7.20
2022-11-24T04:10:52.680Z,7.10
2022-11-24T04:13:22.024Z,7.20
2022-11-24T04:15:50.375Z,7.10
2022-11-24T04:18:18.563Z,7.10
2022-11-24T04:20:46.838Z,7.10
2022-11-24T04:23:14.839Z,7.10
2022-11-24T04:25:44.397Z,7.10
2022-11-24T04:28:13.198Z,7.10
2022-11-24T04:30:44.555Z,7.10
2022-11-24T04:33:13.571Z,7.10
2022-11-24T04:35:41.700Z,7.20
2022-11-24T04:38:09.658Z,7.20
2022-11-24T04:40:38.345Z,7.10
2022-11-24T04:43:07.800Z,7.10
2022-11-24T04:45:35.751Z,7.10
2022-11-24T04:48:03.740Z,7.10
2022-11-24T04:50:31.881Z,7.20
2022-11-24T04:52:59.805Z,7.10
2022-11-24T04:55:27.751Z,7.10
2022-11-24T04:57:55.773Z,7.20
2022-11-24T05:00:25.063Z,7.20
2022-11-24T05:02:53.012Z,7.20
2022-11-24T05:05:20.942Z,7.20
2022-11-24T05:07:48.948Z,7.20
2022-11-24T05:10:35.207Z,7.20
2022-11-24T05:13:04.683Z,7.10
2022-11-24T05:15:34.310Z,7.10
2022-11-24T05:18:06.528Z,7.10
2022-11-24T05:20:35.126Z,7.10
2022-11-24T05:23:04.024Z,7.10
2022-11-24T05:25:32.122Z,7.20
2022-11-24T05:28:01.344Z,7.10
2022-11-24T05:30:32.333Z,7.10
2022-11-24T05:33:06.106Z,7.10
2022-11-24T05:35:34.488Z,7.10
2022-11-24T05:38:02.413Z,7.10
2022-11-24T05:40:30.504Z,7.10
2022-11-24T05:42:58.553Z,7.10
2022-11-24T05:45:26.590Z,7.10
2022-11-24T05:47:54.542Z,7.10
2022-11-24T05:50:24.269Z,7.10
2022-11-24T05:52:52.408Z,7.10
2022-11-24T05:55:20.572Z,7.20
2022-11-24T05:57:48.652Z,7.20
2022-11-24T06:00:20.022Z,7.20
2022-11-24T06:02:48.354Z,7.20
2022-11-24T06:05:16.550Z,7.20
2022-11-24T06:07:46.001Z,7.20
2022-11-24T06:10:14.069Z,7.20
2022-11-24T06:12:42.009Z,7.20
2022-11-24T06:15:11.207Z,7.10
2022-11-24T06:17:39.577Z,7.10
2022-11-24T06:20:09.198Z,7.10
2022-11-24T06:22:39.380Z,7.10
2022-11-24T06:25:09.675Z,7.10
2022-11-24T06:27:37.676Z,7.20
2022-11-24T06:30:06.694Z,7.20
2022-11-24T06:32:34.626Z,7.20
2022-11-24T06:35:02.680Z,7.10
2022-11-24T06:37:30.609Z,7.20
2022-11-24T06:39:58.563Z,7.20
2022-11-24T06:42:27.860Z,7.20
2022-11-24T06:44:55.785Z,7.20
2022-11-24T06:47:23.722Z,7.20
2022-11-24T06:49:51.752Z,7.20
2022-11-24T06:52:19.721Z,7.20
2022-11-24T06:54:47.667Z,7.20
2022-11-24T06:57:15.575Z,7.30
2022-11-24T06:59:44.958Z,7.30
2022-11-24T07:02:12.921Z,7.30
2022-11-24T07:04:40.834Z,7.30
2022-11-24T07:07:08.816Z,7.30
2022-11-24T07:09:36.879Z,7.30
2022-11-24T07:12:05.880Z,7.30
2022-11-24T07:14:34.511Z,7.40
2022-11-24T07:17:04.988Z,7.40
2022-11-24T07:19:33.112Z,7.50
2022-11-24T07:22:01.136Z,7.50
2022-11-24T07:24:29.120Z,7.60
2022-11-24T07:26:57.838Z,7.60
2022-11-24T07:29:25.815Z,7.70
2022-11-24T07:31:54.028Z,7.70
2022-11-24T07:34:23.535Z,7.70
2022-11-24T07:36:51.861Z,7.70
2022-11-24T07:39:20.052Z,7.80
2022-11-24T07:41:48.079Z,7.80
2022-11-24T07:44:16.066Z,7.80
2022-11-24T07:46:44.019Z,7.80
2022-11-24T07:49:12.861Z,7.90
2022-11-24T07:51:42.437Z,7.90
2022-11-24T07:54:11.022Z,7.90
2022-11-24T07:56:39.095Z,7.90
2022-11-24T07:59:07.414Z,8.00
2022-11-24T08:01:35.475Z,8.00
2022-11-24T08:04:03.624Z,8.00
2022-11-24T08:06:40.670Z,8.00
2022-11-24T08:09:11.316Z,8.00
2022-11-24T08:11:39.333Z,8.00
2022-11-24T08:14:07.669Z,8.10
2022-11-24T08:16:35.712Z,8.00
2022-11-24T08:19:03.752Z,8.00
2022-11-24T08:21:32.463Z,8.00
2022-11-24T08:24:00.850Z,8.00
2022-11-24T08:26:30.231Z,8.10
2022-11-24T08:28:59.764Z,8.10
2022-11-24T08:31:33.365Z,8.20
2022-11-24T08:34:02.810Z,8.20
2022-11-24T08:36:31.438Z,8.20
2022-11-24T08:39:00.760Z,8.20
2022-11-24T08:41:31.414Z,8.30
2022-11-24T08:43:59.562Z,8.40
2022-11-24T08:46:27.968Z,8.50
2022-11-24T08:48:56.744Z,8.60
2022-11-24T08:51:27.048Z,8.70
2022-11-24T08:53:56.813Z,8.70
2022-11-24T08:56:25.662Z,8.70
2022-11-24T08:58:55.461Z,8.80
2022-11-24T09:01:24.542Z,8.80
2022-11-24T09:03:53.044Z,8.80
2022-11-24T09:06:23.617Z,8.80
2022-11-24T09:08:51.898Z,8.90
2022-11-24T09:11:20.660Z,8.90
2022-11-24T09:13:48.943Z,9.00
2022-11-24T09:16:21.165Z,9.00
2022-11-24T09:18:55.003Z,9.00
2022-11-24T09:21:23.893Z,8.90
2022-11-24T09:23:53.795Z,8.90
2022-11-24T09:26:23.844Z,8.80
2022-11-24T09:28:54.745Z,8.90
2022-11-24T09:31:26.586Z,8.90
2022-11-24T09:33:55.319Z,8.90
2022-11-24T09:36:23.899Z,8.80
2022-11-24T09:38:51.867Z,8.80
2022-11-24T09:41:39.042Z,8.80
2022-11-24T09:44:18.198Z,8.90
2022-11-24T09:46:58.747Z,8.90
2022-11-24T09:49:34.657Z,8.90
2022-11-24T09:52:04.460Z,8.90
2022-11-24T09:54:35.565Z,8.90
2022-11-24T09:57:06.933Z,8.90
2022-11-24T09:59:35.544Z,8.90
2022-11-24T10:02:13.268Z,8.80
2022-11-24T10:04:44.606Z,8.80
2022-11-24T10:07:22.105Z,8.90
2022-11-24T10:10:04.332Z,8.90
2022-11-24T10:12:43.717Z,9.00
2022-11-24T10:15:27.396Z,9.00
2022-11-24T10:18:27.497Z,9.10
2022-11-24T10:21:04.922Z,9.10
2022-11-24T10:23:50.522Z,9.10
2022-11-24T10:26:24.403Z,9.10
2022-11-24T10:28:55.634Z,9.20
2022-11-24T10:31:29.746Z,9.20
2022-11-24T10:34:04.800Z,9.30
2022-11-24T10:36:47.665Z,9.30
2022-11-24T10:39:21.863Z,9.30
2022-11-24T10:41:53.858Z,9.30
2022-11-24T10:44:21.866Z,9.20
2022-11-24T10:46:50.234Z,9.20
2022-11-24T10:49:23.463Z,9.20
2022-11-24T10:52:03.517Z,9.40
2022-11-24T10:54:31.709Z,9.40
2022-11-24T10:56:59.751Z,9.50
2022-11-24T10:59:39.601Z,9.70
2022-11-24T11:02:31.497Z,9.80
2022-11-24T11:05:28.128Z,9.80
2022-11-24T11:10:52.616Z,9.90
2022-11-24T11:13:26.522Z,9.90
2022-11-24T11:15:55.552Z,9.90
2022-11-24T11:18:28.023Z,10.00
2022-11-24T11:20:58.171Z,10.10
2022-11-24T11:23:29.376Z,10.10
2022-11-24T11:26:31.960Z,10.20
2022-11-24T11:34:48.956Z,10.20
2022-11-24T11:37:18.112Z,10.20
2022-11-24T11:39:49.047Z,10.10
2022-11-24T11:42:59.994Z,10.00
2022-11-24T11:45:18.060Z,10.00
2022-11-24T11:47:51.774Z,10.00
2022-11-24T11:50:26.374Z,9.90
2022-11-24T11:53:07.329Z,9.90
2022-11-24T11:55:49.745Z,9.90
2022-11-24T11:59:02.128Z,10.00
2022-11-24T12:01:56.355Z,9.90
2022-11-24T12:04:34.591Z,9.70
2022-11-24T12:07:46.248Z,9.60
2022-11-24T12:10:24.709Z,9.60
2022-11-24T12:13:11.179Z,9.80
2022-11-24T12:15:46.482Z,10.00
2022-11-24T12:18:57.059Z,10.20
2022-11-24T12:21:25.952Z,10.30
2022-11-24T12:24:04.807Z,10.40
2022-11-24T12:26:42.305Z,10.40
2022-11-24T12:29:45.838Z,10.30
2022-11-24T12:32:30.540Z,10.30
2022-11-24T12:35:06.430Z,10.30
2022-11-24T12:37:48.451Z,10.30
2022-11-24T12:40:24.536Z,10.30
2022-11-24T12:43:00.091Z,10.30
2022-11-24T12:45:40.979Z,10.20
2022-11-24T12:48:22.642Z,10.20
2022-11-24T12:50:53.192Z,10.10
2022-11-24T12:53:25.405Z,10.10
2022-11-24T12:55:54.909Z,10.10
2022-11-24T12:58:30.167Z,10.20
2022-11-24T13:01:14.840Z,10.30
2022-11-24T13:03:59.489Z,10.40
2022-11-24T13:06:31.434Z,10.70
2022-11-24T13:08:59.555Z,10.80
2022-11-24T13:11:40.925Z,10.90
2022-11-24T13:14:16.775Z,11.00
2022-11-24T13:19:46.031Z,10.70
2022-11-24T13:22:24.070Z,10.40
2022-11-24T13:25:13.388Z,10.20
2022-11-24T13:27:48.130Z,10.00
2022-11-24T13:30:53.119Z,9.90
2022-11-24T13:33:35.641Z,9.90
2022-11-24T13:36:52.561Z,10.00
2022-11-24T13:39:22.526Z,10.00
2022-11-24T13:42:43.311Z,10.10
2022-11-24T13:45:00.329Z,10.10
2022-11-24T13:47:43.149Z,10.30
2022-11-24T13:50:24.984Z,10.40
2022-11-24T13:53:01.346Z,10.50
2022-11-24T13:55:39.809Z,10.50
2022-11-24T13:58:28.653Z,10.40
2022-11-24T14:01:15.459Z,10.30
2022-11-24T14:04:28.023Z,10.10
2022-11-24T14:06:45.179Z,10.00
2022-11-24T14:09:24.465Z,9.90
2022-11-24T14:12:07.913Z,9.90
2022-11-24T14:14:36.202Z,9.90
2022-11-24T14:17:18.960Z,10.00
2022-11-24T14:19:48.331Z,10.00
2022-11-24T14:22:22.446Z,10.00
2022-11-24T14:24:57.104Z,10.10
2022-11-24T14:27:31.311Z,10.10
2022-11-24T14:30:01.012Z,10.10
2022-11-24T14:32:30.039Z,10.30
2022-11-24T14:34:58.117Z,10.40
2022-11-24T14:37:26.185Z,10.40
2022-11-24T14:39:55.523Z,10.40
2022-11-24T14:42:25.556Z,10.30
2022-11-24T14:44:56.528Z,10.10
2022-11-24T14:47:31.719Z,10.00
2022-11-24T14:50:10.378Z,9.80
2022-11-24T14:52:46.339Z,9.70
2022-11-24T14:55:27.863Z,9.60
2022-11-24T14:57:56.650Z,9.50
2022-11-24T15:00:29.455Z,9.40
2022-11-24T15:03:14.340Z,9.30
2022-11-24T15:05:54.937Z,9.30
2022-11-24T15:08:23.819Z,9.20
2022-11-24T15:10:59.729Z,9.10
2022-11-24T15:13:31.176Z,9.00
2022-11-24T15:16:03.608Z,8.90
2022-11-24T15:18:38.726Z,8.80
2022-11-24T15:21:07.599Z,8.70
2022-11-24T15:23:36.919Z,8.60
2022-11-24T15:26:31.499Z,8.50
2022-11-24T15:29:02.107Z,8.40
2022-11-24T15:31:30.127Z,8.40
2022-11-24T15:33:58.189Z,8.40
2022-11-24T15:36:26.167Z,8.40
2022-11-24T15:38:54.108Z,8.40
2022-11-24T15:41:23.753Z,8.40
2022-11-24T15:43:58.755Z,8.40
2022-11-24T15:46:27.524Z,8.40
2022-11-24T15:48:55.968Z,8.50
2022-11-24T15:51:26.996Z,8.50
2022-11-24T15:54:00.624Z,8.50
2022-11-24T15:56:32.485Z,8.40
2022-11-24T15:59:02.704Z,8.30
2022-11-24T16:01:33.596Z,8.20
2022-11-24T16:04:03.782Z,8.10
2022-11-24T16:06:31.847Z,8.00
2022-11-24T16:08:59.871Z,7.90
2022-11-24T16:11:28.334Z,7.80
2022-11-24T16:13:56.729Z,7.70
2022-11-24T16:16:26.594Z,7.70
2022-11-24T16:18:54.637Z,7.50
2022-11-24T16:21:23.210Z,7.50
2022-11-24T16:23:51.294Z,7.40
2022-11-24T16:26:19.343Z,7.30
2022-11-24T16:28:47.337Z,7.30
2022-11-24T16:31:16.351Z,7.20
2022-11-24T16:33:46.575Z,7.20
2022-11-24T16:36:15.263Z,7.20
2022-11-24T16:38:43.241Z,7.20
2022-11-24T16:47:17.188Z,7.10
2022-11-24T16:49:47.588Z,7.10
2022-11-24T16:52:15.932Z,7.10
2022-11-24T16:54:43.914Z,7.10
2022-11-24T16:57:14.904Z,7.00
2022-11-24T16:59:45.865Z,7.00
2022-11-24T17:02:14.220Z,7.00
2022-11-24T17:04:42.288Z,7.00
2022-11-24T17:07:11.739Z,7.00
2022-11-24T17:09:40.829Z,7.00
2022-11-24T17:12:09.122Z,7.00
2022-11-24T17:14:37.418Z,6.90
2022-11-24T17:17:05.789Z,6.90
2022-11-24T17:19:33.750Z,6.90
2022-11-24T17:22:01.706Z,6.80
2022-11-24T17:24:31.164Z,6.70
2022-11-24T17:26:59.382Z,6.80
2022-11-24T17:29:27.626Z,6.70
2022-11-24T17:31:55.710Z,6.70
2022-11-24T17:34:23.821Z,6.70
2022-11-24T17:36:51.799Z,6.70
2022-11-24T17:39:24.741Z,6.70
2022-11-24T17:41:54.446Z,6.70
2022-11-24T17:44:22.384Z,6.70
2022-11-24T17:46:50.481Z,6.70
2022-11-24T17:49:18.980Z,6.70
2022-11-24T17:51:50.308Z,6.70
2022-11-24T17:57:08.007Z,6.60
2022-11-24T17:59:36.301Z,6.50
2022-11-24T18:02:04.307Z,6.50
2022-11-24T18:04:33.905Z,6.40
2022-11-24T18:07:02.077Z,6.40
2022-11-24T18:09:30.367Z,6.40
2022-11-24T18:11:58.344Z,6.30
2022-11-24T18:14:27.789Z,6.20
2022-11-24T18:16:55.855Z,6.20
2022-11-24T18:19:23.844Z,6.10
2022-11-24T18:21:52.217Z,6.10
2022-11-24T18:24:24.060Z,6.00
2022-11-24T18:26:52.360Z,6.00
2022-11-24T18:29:20.281Z,6.00
2022-11-24T18:31:49.598Z,6.30
2022-11-24T18:34:17.643Z,6.60
2022-11-24T18:36:47.416Z,6.70
2022-11-24T18:39:17.877Z,6.60
2022-11-24T18:41:45.941Z,6.50
2022-11-24T18:44:13.927Z,6.40
2022-11-24T18:46:41.965Z,6.30
2022-11-24T18:49:11.262Z,6.30
2022-11-24T18:51:39.254Z,6.20
2022-11-24T18:54:07.268Z,6.20
2022-11-24T18:56:36.397Z,6.10
2022-11-24T18:59:04.299Z,6.10
2022-11-24T19:01:32.783Z,6.20
2022-11-24T19:04:02.818Z,6.20
2022-11-24T19:06:34.138Z,6.20
2022-11-24T19:09:04.007Z,6.20
2022-11-24T19:11:35.264Z,6.20
2022-11-24T19:14:03.790Z,6.20
2022-11-24T19:16:32.145Z,6.20
2022-11-24T19:19:02.370Z,6.20
2022-11-24T19:21:33.885Z,6.20
2022-11-24T19:24:05.215Z,6.20
2022-11-24T19:26:34.741Z,6.20
2022-11-24T19:29:03.139Z,6.30
2022-11-24T19:31:31.185Z,6.30
2022-11-24T19:33:59.809Z,6.30
2022-11-24T19:36:28.255Z,6.30
2022-11-24T19:38:59.058Z,6.20
2022-11-24T19:41:29.138Z,6.20
2022-11-24T19:43:58.397Z,6.10
2022-11-24T19:46:29.645Z,6.10
2022-11-24T19:49:00.516Z,6.00
2022-11-24T19:51:31.148Z,6.00
2022-11-24T19:54:01.122Z,6.00
2022-11-24T19:56:30.876Z,5.90
2022-11-24T19:58:59.094Z,5.80
2022-11-24T20:01:28.573Z,5.80
2022-11-24T20:03:59.138Z,5.70
2022-11-24T20:06:28.084Z,5.70
2022-11-24T20:08:56.348Z,5.60
2022-11-24T20:11:25.943Z,5.70
2022-11-24T20:13:54.385Z,5.60
2022-11-24T20:16:26.441Z,5.60
2022-11-24T20:18:56.164Z,5.60
2022-11-24T20:21:25.882Z,5.50
2022-11-24T20:23:56.833Z,5.50
2022-11-24T20:26:28.164Z,5.50
2022-11-24T20:28:58.023Z,5.40
2022-11-24T20:31:28.387Z,5.40
2022-11-24T20:33:56.966Z,5.50
2022-11-24T20:36:27.054Z,5.30
2022-11-24T20:38:55.526Z,5.30
2022-11-24T20:41:27.446Z,5.30
2022-11-24T20:43:57.536Z,5.30
2022-11-24T20:46:29.252Z,5.20
2022-11-24T20:48:58.324Z,5.20
2022-11-24T20:51:30.517Z,5.20
2022-11-24T20:54:00.365Z,5.20
2022-11-24T20:56:31.378Z,5.20
2022-11-24T20:59:00.251Z,5.10
2022-11-24T21:01:30.073Z,5.10
2022-11-24T21:04:00.019Z,5.00
2022-11-24T21:06:29.159Z,5.10
2022-11-24T21:09:03.275Z,5.00
2022-11-24T21:11:33.555Z,5.00
2022-11-24T21:14:01.965Z,5.00
2022-11-24T21:16:31.900Z,5.00
2022-11-24T21:19:01.870Z,5.00
2022-11-24T21:21:34.456Z,4.90
2022-11-24T21:24:03.323Z,4.90
2022-11-24T21:26:31.316Z,4.90
2022-11-24T21:29:00.889Z,4.90
2022-11-24T21:31:28.953Z,5.00
2022-11-24T21:33:57.293Z,5.00
2022-11-24T21:36:26.896Z,4.90
2022-11-24T21:38:56.701Z,4.90
2022-11-24T21:41:25.982Z,4.90
2022-11-24T21:43:55.474Z,4.90
2022-11-24T21:46:25.829Z,4.90
2022-11-24T21:48:53.841Z,4.90
2022-11-24T21:51:22.857Z,4.90
2022-11-24T21:53:50.795Z,4.90
2022-11-24T21:56:20.439Z,5.00
2022-11-24T21:58:50.366Z,5.00
2022-11-24T22:01:20.746Z,5.00
2022-11-24T22:03:50.404Z,5.00
2022-11-24T22:06:19.595Z,5.10
2022-11-24T22:08:48.485Z,5.00
2022-11-24T22:11:18.290Z,5.10
2022-11-24T22:13:47.050Z,5.10
2022-11-24T22:16:17.121Z,5.20
2022-11-24T22:18:46.126Z,5.30
2022-11-24T22:21:17.023Z,5.30
2022-11-24T22:23:45.577Z,5.50
2022-11-24T22:26:16.335Z,5.50
2022-11-24T22:28:45.841Z,5.60
2022-11-24T22:31:15.836Z,5.60
2022-11-24T22:33:44.732Z,5.60
2022-11-24T22:36:13.960Z,5.60
2022-11-24T22:38:43.707Z,5.80
2022-11-24T22:41:13.954Z,5.60
2022-11-24T22:43:43.583Z,5.60
2022-11-24T22:46:13.579Z,5.60
2022-11-24T22:48:42.706Z,5.50
2022-11-24T22:51:13.060Z,5.50
2022-11-24T22:53:41.580Z,5.50
2022-11-24T22:56:12.405Z,5.50
2022-11-24T22:58:41.790Z,5.60
2022-11-24T23:01:12.899Z,5.70
2022-11-24T23:03:41.830Z,5.70
2022-11-24T23:06:12.774Z,5.80
2022-11-24T23:08:41.718Z,5.80
2022-11-24T23:11:13.039Z,5.90
2022-11-24T23:13:41.181Z,5.90
2022-11-24T23:16:11.161Z,6.00
2022-11-24T23:18:39.769Z,6.00
2022-11-24T23:21:08.537Z,6.10
2022-11-24T23:23:36.533Z,6.20
2022-11-24T23:26:06.682Z,6.20
2022-11-24T23:28:36.621Z,6.30
2022-11-24T23:31:05.812Z,6.20
2022-11-24T23:33:34.207Z,6.20
2022-11-24T23:36:03.284Z,6.10
2022-11-24T23:38:32.761Z,6.10
2022-11-24T23:41:04.007Z,6.10
2022-11-24T23:43:32.094Z,6.20
2022-11-24T23:46:05.255Z,6.20
2022-11-24T23:48:34.098Z,6.20
2022-11-24T23:51:05.757Z,6.20
2022-11-24T23:53:34.210Z,6.30
2022-11-24T23:56:02.890Z,6.30
2022-11-24T23:58:31.280Z,6.30
